Details From PAJN - Juneau Intl
To PAED - Elmendorf Afb
Flight Number -
Tags Generated
Created
Modified
Stats Distance 490 nm / 907 km
Max Altitude 0 ft / 0 m
Waypoints 3
Social Downloads 1
Likes 0
Share VATSIM

Download

Looking for another format? Having issues loading an existing format? Contact us
Advertisement - Login to hide

Notes

Generated

Route

PAJN OUTER PAED

ID Type Via Altitude Latitude Longitude Leg Dist Tot Dist Heading (true) Name
O PAJN APT - 0 ft / 0 m 58.35793˚ -134.59756˚ - 0 nm - -
OUTER FIX - 0 ft / 0 m 61.25833˚ -149.75000˚ 488 nm 488 nm 297° / 284° -
O PAED APT - 0 ft / 0 m 61.26208˚ -149.79348˚ 1 nm 489 nm 280° / 280° -

Altitude Profile

Advertisement - Login to hide

Weather


0- 5 10 15 20 25 30 35+ Temperature / ° C

Clouds and Precipitation
Forecast for 2018-05-24 00:00 UTC. Updated 3 hours ago

Ground ~20,000 ft ~40,000 ft Winds

PAJN

Details ICAO PAJN (JNU)
Name Juneau Intl
Region USA (Alaska)
Timezone America/Juneau (UTC-8.0)
Stats Elevation 21 ft / 6 m (AMSL)
Location 58.354964° -134.576278°
Runways 1
Magnetic Variation 19.020° E

METAR

PAJN 240153Z 26005KT 10SM FEW040 BKN055 OVC100 13/06 A2979

Decode

TAF

PAJN 232335Z 2400/2424 24012KT P6SM FEW040 BKN070 OVC200 FM240300 24006KT P6SM VCSH BKN045 BKN080 FM240500 13006KT P6SM -SHRA SCT025 OVC040 FM241800 11013KT P6SM VCSH OVC040

Decode

Departure Runways

ID Width Length Bearing (true) Bearing (mag) Surface Threshold Offset Overrun Length
08 150 ft / 46 m 8,430 ft / 2,570 m 104.87° 85.85° Asphalt 0 ft / 0 m 450 ft / 137 m
26 150 ft / 46 m 8,430 ft / 2,570 m 284.90° 265.88° Asphalt 0 ft / 0 m 225 ft / 69 m

PAED

Details ICAO PAED (EDF)
Name ELMENDORF AFB
Region USA (Alaska)
Timezone America/Anchorage (UTC-8.0)
Stats Elevation 212 ft / 65 m (AMSL)
Location 61.251410° -149.804879°
Runways 2
Magnetic Variation 16.148° E

METAR

PAED 240156Z AUTO 06004KT 10SM BKN060 BKN110 BKN140 OVC180 13/01 A2973

Decode

TAF

TAF PAED 231900Z 2319/2501 VRB06KT 9999 FEW040 QNH2976INS BECMG 2323/2324 VRB06KT 8000 -SHRA FEW015 BKN040 610406 QNH2970INS TX12/2402Z TN08/2413Z

Decode

Destination Runways

ID Width Length Bearing (true) Bearing (mag) Surface Threshold Offset Overrun Length
06 200 ft / 61 m 9,966 ft / 3,038 m 79.98° 63.83° Asphalt 0 ft / 0 m 1,000 ft / 305 m
16 150 ft / 46 m 7,493 ft / 2,284 m 180.00° 163.85° Asphalt 0 ft / 0 m 1,000 ft / 305 m
24 200 ft / 61 m 9,966 ft / 3,038 m 260.03° 243.88° Asphalt 0 ft / 0 m 1,000 ft / 305 m
34 150 ft / 46 m 7,493 ft / 2,284 m 0.00° 343.85° Asphalt 0 ft / 0 m 750 ft / 229 m

Approach Navaids

Runway Type Ident Frequency Range Bearing (true) Bearing (mag) Slope Elevation
06 Localiser IEDF 110.30 MHz 18 nm / 33 km 80.38° 64.24° - 212 ft / 65 m (AMSL)
06 Glidescope IEDF 110.30 MHz 10 nm / 19 km 80.00° 63.86° 2.83° 212 ft / 65 m (AMSL)

Popular Alternatives